Time;durP1;ratioP1;P1;durP2;ratioP2;P2;SDS_P1;SDS_P2;PMS_P1;PMS_P2;Temp;Humidity;BMP_temperature;BMP_pressure;BME280_temperature;BME280_humidity;BME280_pressure;Samples;Min_cycle;Max_cycle;Signal;HPM_P1;HPM_P2
2022/08/31 00:05:37;;;;;;;0.00;0.00;;;22.60;53.10;;;;;;4200785;28;20610;-61
2022/08/31 00:08:17;;;;;;;0.00;0.00;;;22.60;53.80;;;;;;4191807;28;20364;-60
2022/08/31 00:10:59;;;;;;;0.00;0.00;;;22.60;53.90;;;;;;4191383;28;20434;-61
2022/08/31 00:13:41;;;;;;;0.00;0.00;;;22.60;53.60;;;;;;4175613;28;20582;-61
2022/08/31 00:16:23;;;;;;;0.00;0.00;;;22.60;53.60;;;;;;4175065;28;20052;-61
2022/08/31 00:19:06;;;;;;;0.20;0.20;;;22.60;54.00;;;;;;4173717;28;20391;-60
2022/08/31 00:21:48;;;;;;;0.00;0.00;;;22.60;54.00;;;;;;4193410;28;20066;-61
2022/08/31 00:24:30;;;;;;;0.00;0.00;;;22.60;54.50;;;;;;4182780;28;20055;-61
2022/08/31 00:27:14;;;;;;;0.00;0.00;;;22.60;53.80;;;;;;4185165;28;20110;-62
2022/08/31 00:29:55;;;;;;;0.00;0.00;;;22.50;54.20;;;;;;4175341;28;20055;-61
2022/08/31 00:32:36;;;;;;;0.00;0.00;;;22.50;54.20;;;;;;4177424;28;20514;-59
2022/08/31 00:35:18;;;;;;;0.10;0.10;;;22.50;53.80;;;;;;4192138;28;20047;-59
2022/08/31 00:38:00;;;;;;;;;;;22.50;54.00;;;;;;4193056;28;20059;-59
2022/08/31 00:40:44;;;;;;;0.00;0.00;;;22.50;53.40;;;;;;4191525;28;20303;-61
2022/08/31 00:43:38;;;;;;;0.00;0.00;;;22.50;53.90;;;;;;4208387;28;20155;-61
2022/08/31 00:46:22;;;;;;;0.00;0.00;;;22.50;54.10;;;;;;4189511;28;20379;-63
2022/08/31 00:49:07;;;;;;;0.00;0.00;;;22.50;54.00;;;;;;4205216;28;20410;-61
2022/08/31 00:51:53;;;;;;;0.00;0.00;;;22.50;53.80;;;;;;4190745;28;20182;-61
2022/08/31 00:54:41;;;;;;;0.00;0.00;;;22.50;54.60;;;;;;4192710;28;20043;-62
2022/08/31 00:57:24;;;;;;;0.00;0.00;;;22.50;54.20;;;;;;4181038;28;20107;-62
2022/08/31 01:00:12;;;;;;;0.00;0.00;;;22.40;54.50;;;;;;4207257;28;20051;-61
2022/08/31 01:02:56;;;;;;;0.00;0.00;;;22.40;53.60;;;;;;4207020;28;20160;-61
2022/08/31 01:05:39;;;;;;;0.00;0.00;;;22.50;53.90;;;;;;4175075;28;20059;-60
2022/08/31 01:08:21;;;;;;;0.00;0.00;;;22.40;54.10;;;;;;4180772;28;20089;-61
2022/08/31 01:11:08;;;;;;;0.00;0.00;;;22.40;54.50;;;;;;4176026;28;20450;-61
2022/08/31 01:13:50;;;;;;;0.00;0.00;;;22.40;53.90;;;;;;4176036;28;20059;-61
2022/08/31 01:16:36;;;;;;;0.00;0.00;;;22.40;54.80;;;;;;4201544;28;20541;-61
2022/08/31 01:19:27;;;;;;;0.00;0.00;;;22.40;55.60;;;;;;4189855;28;20487;-61
2022/08/31 01:22:18;;;;;;;0.00;0.00;;;22.40;55.00;;;;;;4173588;28;20614;-59
2022/08/31 01:25:02;;;;;;;0.00;0.00;;;22.40;55.10;;;;;;4197683;28;20133;-59
2022/08/31 01:27:43;;;;;;;0.00;0.00;;;22.40;55.20;;;;;;4176108;28;20072;-60
2022/08/31 01:30:25;;;;;;;;;;;22.40;56.20;;;;;;4188147;28;20059;-60
2022/08/31 01:33:07;;;;;;;0.00;0.00;;;22.40;55.40;;;;;;4192121;28;20282;-60
2022/08/31 01:35:48;;;;;;;0.00;0.00;;;22.40;55.60;;;;;;4192921;28;20067;-60
2022/08/31 01:38:29;;;;;;;0.10;0.10;;;22.40;55.60;;;;;;4206021;28;20150;-60
2022/08/31 01:41:13;;;;;;;0.00;0.00;;;22.40;55.70;;;;;;4195272;28;20051;-59
2022/08/31 01:43:55;;;;;;;0.00;0.00;;;22.40;55.70;;;;;;4199213;28;20055;-61
2022/08/31 01:46:36;;;;;;;0.00;0.00;;;22.40;55.70;;;;;;4188116;28;20055;-60
2022/08/31 01:49:19;;;;;;;0.00;0.00;;;22.40;55.80;;;;;;4203588;28;20071;-59
2022/08/31 01:52:00;;;;;;;0.00;0.00;;;22.30;55.80;;;;;;4174414;28;20044;-59
2022/08/31 01:54:42;;;;;;;0.17;0.17;;;22.40;55.10;;;;;;4167932;28;20067;-60
2022/08/31 01:57:24;;;;;;;0.00;0.00;;;22.30;55.70;;;;;;4172846;28;20455;-60
2022/08/31 02:00:32;;;;;;;0.00;0.00;;;22.30;55.10;;;;;;4176267;28;20094;-61
2022/08/31 02:03:14;;;;;;;0.00;0.00;;;22.30;55.30;;;;;;4176936;28;20063;-60
2022/08/31 02:05:55;;;;;;;0.00;0.00;;;22.30;55.20;;;;;;4193438;28;20135;-61
2022/08/31 02:08:36;;;;;;;0.00;0.00;;;22.40;55.40;;;;;;4194379;28;20051;-61
2022/08/31 02:11:17;;;;;;;0.00;0.00;;;22.30;55.40;;;;;;4198030;28;20046;-61
2022/08/31 02:14:00;;;;;;;0.00;0.00;;;22.30;55.80;;;;;;4220446;28;20051;-61
2022/08/31 02:16:44;;;;;;;0.00;0.00;;;22.30;55.40;;;;;;4193339;28;20060;-61
2022/08/31 02:19:25;;;;;;;0.00;0.00;;;22.30;55.80;;;;;;4194486;28;20055;-61
2022/08/31 02:22:09;;;;;;;0.00;0.00;;;22.30;55.80;;;;;;4193031;28;20387;-60
2022/08/31 02:24:50;;;;;;;0.00;0.00;;;22.30;55.80;;;;;;4195423;28;20067;-61
2022/08/31 02:27:31;;;;;;;0.00;0.00;;;22.30;55.90;;;;;;4190918;28;20063;-60
2022/08/31 02:30:17;;;;;;;0.00;0.00;;;22.30;56.00;;;;;;4193948;28;20514;-60
2022/08/31 02:32:58;;;;;;;0.00;0.00;;;22.30;56.00;;;;;;4210193;28;20089;-60
2022/08/31 02:35:40;;;;;;;0.00;0.00;;;22.30;55.90;;;;;;4207799;28;20047;-60
2022/08/31 02:38:22;;;;;;;0.00;0.00;;;22.20;56.00;;;;;;4192165;28;20059;-60
2022/08/31 02:41:05;;;;;;;0.00;0.00;;;22.30;56.70;;;;;;4192792;28;20129;-60
2022/08/31 02:43:48;;;;;;;0.00;0.00;;;22.20;56.00;;;;;;4183888;28;20124;-61
2022/08/31 02:46:31;;;;;;;0.00;0.00;;;22.20;56.10;;;;;;4220319;28;20162;-60
2022/08/31 02:49:48;;;;;;;0.00;0.00;;;22.20;56.10;;;;;;4157652;28;20056;-60
2022/08/31 02:52:29;;;;;;;0.00;0.00;;;22.20;55.80;;;;;;4192748;28;20508;-60
2022/08/31 02:55:10;;;;;;;0.10;0.10;;;22.20;55.70;;;;;;4193137;28;20048;-60
2022/08/31 02:57:51;;;;;;;0.10;0.10;;;22.20;55.70;;;;;;4191324;28;20075;-60
2022/08/31 03:00:34;;;;;;;0.00;0.00;;;22.20;55.70;;;;;;4190915;28;20552;-60
2022/08/31 03:03:18;;;;;;;0.00;0.00;;;22.20;55.90;;;;;;4207021;28;20043;-60
2022/08/31 03:05:59;;;;;;;0.00;0.00;;;22.10;55.80;;;;;;4186797;28;20086;-60
2022/08/31 03:08:41;;;;;;;0.00;0.00;;;22.20;55.40;;;;;;4162990;28;20060;-61
2022/08/31 03:11:22;;;;;;;0.00;0.00;;;22.10;55.60;;;;;;4162361;28;20628;-60
2022/08/31 03:14:03;;;;;;;0.00;0.00;;;22.10;55.90;;;;;;4187574;28;20051;-60
2022/08/31 03:16:45;;;;;;;0.00;0.00;;;22.10;55.60;;;;;;4187411;28;20348;-60
2022/08/31 03:19:28;;;;;;;0.00;0.00;;;22.10;55.80;;;;;;4185449;28;20411;-60
2022/08/31 03:22:11;;;;;;;0.00;0.00;;;22.10;55.90;;;;;;4175006;28;20044;-60
2022/08/31 03:24:52;;;;;;;0.00;0.00;;;22.00;56.20;;;;;;4198312;28;20395;-61
2022/08/31 03:27:33;;;;;;;0.00;0.00;;;22.10;56.20;;;;;;4191651;28;20075;-61
2022/08/31 03:30:16;;;;;;;0.00;0.00;;;22.10;56.30;;;;;;4180313;28;20048;-61
2022/08/31 03:33:11;;;;;;;0.00;0.00;;;22.10;56.20;;;;;;4195557;28;20523;-61
2022/08/31 03:35:54;;;;;;;0.00;0.00;;;22.10;56.20;;;;;;4193216;28;20128;-61
2022/08/31 03:38:36;;;;;;;0.00;0.00;;;22.00;56.30;;;;;;4209016;28;20055;-60
2022/08/31 03:41:18;;;;;;;;;;;22.00;56.40;;;;;;4206590;28;20680;-61
2022/08/31 03:44:01;;;;;;;0.00;0.00;;;22.00;56.30;;;;;;4200721;28;19977;-61
2022/08/31 03:46:44;;;;;;;0.00;0.00;;;22.00;56.40;;;;;;4191120;28;20407;-60
2022/08/31 03:49:26;;;;;;;0.00;0.00;;;22.00;56.70;;;;;;4192496;28;20047;-61
2022/08/31 03:52:30;;;;;;;0.00;0.00;;;21.90;56.70;;;;;;4178983;28;20051;-61
2022/08/31 03:55:17;;;;;;;0.00;0.00;;;22.00;57.00;;;;;;4176060;28;20047;-61
2022/08/31 03:58:00;;;;;;;0.00;0.00;;;22.00;57.00;;;;;;4189684;28;20056;-60
2022/08/31 04:00:43;;;;;;;0.00;0.00;;;22.00;57.00;;;;;;4191019;28;20169;-61
2022/08/31 04:03:41;;;;;;;0.00;0.00;;;21.90;56.90;;;;;;4179759;28;20122;-60
2022/08/31 04:06:43;;;;;;;0.00;0.00;;;21.90;56.90;;;;;;4178568;28;20095;-61
2022/08/31 04:09:43;;;;;;;;;;;21.90;57.00;;;;;;4176138;28;20139;-61
2022/08/31 04:12:45;;;;;;;0.00;0.00;;;21.90;56.80;;;;;;4179515;28;19935;-62
2022/08/31 04:15:46;;;;;;;0.00;0.00;;;21.90;56.90;;;;;;4175805;28;20082;-62
2022/08/31 04:18:47;;;;;;;0.00;0.00;;;21.90;57.00;;;;;;4190453;28;20075;-62
2022/08/31 04:21:30;;;;;;;0.00;0.00;;;21.90;57.10;;;;;;4196735;28;20052;-61
2022/08/31 04:24:14;;;;;;;0.00;0.00;;;21.90;57.10;;;;;;4199366;28;20078;-61
2022/08/31 04:26:57;;;;;;;;;;;21.80;57.10;;;;;;4179477;28;20051;-62
2022/08/31 04:29:38;;;;;;;0.00;0.00;;;21.90;57.50;;;;;;4191416;28;19931;-62
2022/08/31 04:32:19;;;;;;;0.00;0.00;;;21.90;57.10;;;;;;4189581;28;20055;-63
2022/08/31 04:35:02;;;;;;;0.00;0.00;;;21.80;57.10;;;;;;4175398;28;20137;-61
2022/08/31 04:37:45;;;;;;;0.00;0.00;;;21.80;57.20;;;;;;4182457;28;20055;-62
2022/08/31 04:40:27;;;;;;;0.00;0.00;;;21.80;57.30;;;;;;4189226;28;20097;-61
2022/08/31 04:43:11;;;;;;;0.13;0.13;;;21.80;57.30;;;;;;4192762;28;20138;-62
2022/08/31 04:45:53;;;;;;;0.00;0.00;;;21.80;57.30;;;;;;4190864;28;20490;-63
2022/08/31 04:48:35;;;;;;;0.00;0.00;;;21.80;57.40;;;;;;4202523;28;20051;-63
2022/08/31 04:51:19;;;;;;;0.00;0.00;;;21.80;57.40;;;;;;4203192;28;20481;-63
2022/08/31 04:54:00;;;;;;;0.00;0.00;;;21.80;57.40;;;;;;4202126;28;20728;-62
2022/08/31 04:56:45;;;;;;;0.00;0.00;;;21.80;57.50;;;;;;4205012;28;20097;-61
2022/08/31 04:59:36;;;;;;;0.00;0.00;;;21.80;57.40;;;;;;4197218;28;20080;-62
2022/08/31 05:02:41;;;;;;;0.00;0.00;;;21.80;57.20;;;;;;4210300;28;20066;-62
2022/08/31 05:05:29;;;;;;;0.00;0.00;;;21.80;57.40;;;;;;4204051;28;20094;-62
2022/08/31 05:08:10;;;;;;;;;;;21.70;57.60;;;;;;4206730;28;20426;-60
2022/08/31 05:10:52;;;;;;;0.00;0.00;;;21.80;57.60;;;;;;4181618;28;19943;-62
2022/08/31 05:13:33;;;;;;;0.00;0.00;;;21.80;57.50;;;;;;4188792;28;20487;-61
2022/08/31 05:16:18;;;;;;;0.00;0.00;;;21.80;57.70;;;;;;4165365;28;20089;-60
2022/08/31 05:18:59;;;;;;;1.05;0.52;;;21.70;58.20;;;;;;4165205;28;20044;-60
2022/08/31 05:21:42;;;;;;;0.00;0.00;;;21.80;58.40;;;;;;4205659;28;20410;-60
2022/08/31 05:24:24;;;;;;;0.15;0.15;;;21.80;58.40;;;;;;4203264;28;20047;-60
2022/08/31 05:27:05;;;;;;;0.00;0.00;;;21.80;58.20;;;;;;4190722;28;20100;-60
2022/08/31 05:29:46;;;;;;;0.00;0.00;;;21.80;57.90;;;;;;4200578;28;20538;-60
2022/08/31 05:32:47;;;;;;;0.00;0.00;;;21.80;57.80;;;;;;4207076;28;20055;-60
2022/08/31 05:35:30;;;;;;;0.00;0.00;;;21.80;58.60;;;;;;4197419;28;20157;-60
2022/08/31 05:38:11;;;;;;;1.95;0.85;;;21.80;57.80;;;;;;4209178;28;20055;-61
2022/08/31 05:40:53;;;;;;;0.00;0.00;;;21.80;57.70;;;;;;4197971;28;20051;-60
2022/08/31 05:43:34;;;;;;;0.00;0.00;;;21.80;57.60;;;;;;4209474;28;20185;-60
2022/08/31 05:46:16;;;;;;;0.00;0.00;;;21.80;57.50;;;;;;4180144;28;20058;-60
2022/08/31 05:48:59;;;;;;;0.00;0.00;;;21.80;57.40;;;;;;4177474;28;20130;-60
2022/08/31 05:51:41;;;;;;;0.00;0.00;;;21.80;57.40;;;;;;4185156;28;20333;-60
2022/08/31 05:54:22;;;;;;;;;;;21.70;57.30;;;;;;4203115;28;20396;-60
2022/08/31 05:57:04;;;;;;;0.00;0.00;;;21.70;57.30;;;;;;4205333;28;20299;-60
2022/08/31 05:59:45;;;;;;;0.00;0.00;;;21.70;57.10;;;;;;4206851;28;20051;-60
2022/08/31 06:02:26;;;;;;;0.00;0.00;;;21.70;57.30;;;;;;4203423;28;20439;-60
2022/08/31 06:05:10;;;;;;;3.13;0.47;;;21.70;57.30;;;;;;4192977;28;20104;-60
2022/08/31 06:07:52;;;;;;;0.00;0.00;;;21.60;57.50;;;;;;4193855;28;20040;-60
2022/08/31 06:10:33;;;;;;;0.00;0.00;;;21.60;57.50;;;;;;4196619;28;20105;-60
2022/08/31 06:13:15;;;;;;;0.00;0.00;;;21.60;57.50;;;;;;4207867;28;20616;-60
2022/08/31 06:15:57;;;;;;;0.00;0.00;;;21.60;58.10;;;;;;4209411;28;20051;-59
2022/08/31 06:18:39;;;;;;;0.80;0.60;;;21.60;57.40;;;;;;4207300;28;20109;-60
2022/08/31 06:21:25;;;;;;;0.00;0.00;;;21.60;57.60;;;;;;4179538;28;20059;-60
2022/08/31 06:24:10;;;;;;;0.00;0.00;;;21.60;57.50;;;;;;4191059;28;20059;-59
2022/08/31 06:27:02;;;;;;;0.10;0.10;;;21.60;57.40;;;;;;4192727;28;20055;-60
2022/08/31 06:29:46;;;;;;;0.00;0.00;;;21.60;57.40;;;;;;4200832;28;20068;-60
2022/08/31 06:32:30;;;;;;;0.00;0.00;;;21.60;57.60;;;;;;4207496;28;20047;-60
2022/08/31 06:35:15;;;;;;;0.00;0.00;;;21.70;57.70;;;;;;4186355;28;20086;-60
2022/08/31 06:38:18;;;;;;;0.10;0.10;;;21.70;57.80;;;;;;4208393;28;20105;-60
2022/08/31 06:41:24;;;;;;;0.00;0.00;;;21.70;57.90;;;;;;4190180;28;20166;-60
2022/08/31 06:44:37;;;;;;;0.00;0.00;;;21.70;57.80;;;;;;4193599;28;20106;-60
2022/08/31 06:47:27;;;;;;;0.00;0.00;;;21.70;57.80;;;;;;4183014;28;20059;-60
2022/08/31 06:50:08;;;;;;;;;;;21.70;57.90;;;;;;4180434;28;20051;-60
2022/08/31 06:52:50;;;;;;;0.00;0.00;;;21.70;58.60;;;;;;4175296;28;19943;-60
2022/08/31 06:55:36;;;;;;;0.00;0.00;;;21.80;58.10;;;;;;4194114;28;20051;-60
2022/08/31 06:58:36;;;;;;;0.28;0.28;;;21.80;57.80;;;;;;4206478;28;20140;-60
2022/08/31 07:01:18;;;;;;;;;;;21.80;57.90;;;;;;4190401;28;20056;-60
2022/08/31 07:04:22;;;;;;;0.00;0.00;;;21.90;57.50;;;;;;4178446;28;19932;-59
2022/08/31 07:07:06;;;;;;;0.00;0.00;;;21.80;57.70;;;;;;4194976;28;20584;-60
2022/08/31 07:09:48;;;;;;;0.00;0.00;;;21.80;57.70;;;;;;4207893;28;20062;-61
2022/08/31 07:12:30;;;;;;;0.00;0.00;;;21.80;57.70;;;;;;4208554;28;20059;-60
2022/08/31 07:15:12;;;;;;;0.00;0.00;;;21.80;57.80;;;;;;4204030;28;20055;-62
2022/08/31 07:17:54;;;;;;;0.00;0.00;;;21.80;57.80;;;;;;4205804;28;20126;-62
2022/08/31 07:20:36;;;;;;;0.65;0.65;;;21.70;57.90;;;;;;4206369;28;20051;-64
2022/08/31 07:23:18;;;;;;;0.00;0.00;;;21.80;58.00;;;;;;4204559;28;20066;-62
2022/08/31 07:26:07;;;;;;;0.00;0.00;;;21.80;58.40;;;;;;4203320;28;20501;-63
2022/08/31 07:28:51;;;;;;;0.00;0.00;;;21.90;58.20;;;;;;4201665;28;20406;-63
2022/08/31 07:31:39;;;;;;;0.00;0.00;;;22.10;58.20;;;;;;4206642;28;20043;-63
2022/08/31 07:34:24;;;;;;;0.10;0.10;;;22.10;57.80;;;;;;4173483;28;20187;-63
2022/08/31 07:43:40;;;;;;;0.00;0.00;;;22.30;57.30;;;;;;4172916;28;20148;-63
2022/08/31 07:46:30;;;;;;;;;;;22.40;57.80;;;;;;4160989;28;20055;-63
2022/08/31 07:49:14;;;;;;;0.00;0.00;;;22.40;56.90;;;;;;4191427;28;19927;-63
2022/08/31 07:52:19;;;;;;;0.00;0.00;;;22.50;56.70;;;;;;4201642;28;20526;-63
2022/08/31 07:55:26;;;;;;;0.00;0.00;;;22.50;56.40;;;;;;4193950;28;20059;-63
2022/08/31 07:58:16;;;;;;;0.00;0.00;;;22.50;56.40;;;;;;4208413;28;20154;-63
2022/08/31 08:01:01;;;;;;;0.40;0.40;;;22.60;56.30;;;;;;4199036;28;20055;-63
2022/08/31 08:03:44;;;;;;;0.00;0.00;;;22.60;56.30;;;;;;4174433;28;20055;-63
2022/08/31 08:06:44;;;;;;;0.00;0.00;;;22.60;56.20;;;;;;4174378;28;20071;-63
2022/08/31 08:09:42;;;;;;;0.00;0.00;;;22.70;56.10;;;;;;4201772;28;20072;-62
2022/08/31 08:12:35;;;;;;;0.00;0.00;;;22.70;55.90;;;;;;4187537;28;20054;-63
2022/08/31 08:15:31;;;;;;;0.00;0.00;;;22.80;56.10;;;;;;4180034;28;20513;-63
2022/08/31 08:18:28;;;;;;;0.00;0.00;;;22.80;56.00;;;;;;4190893;28;20063;-64
2022/08/31 08:21:14;;;;;;;0.00;0.00;;;22.80;56.00;;;;;;4174426;28;20082;-63
2022/08/31 08:23:56;;;;;;;0.00;0.00;;;22.90;56.80;;;;;;4189529;28;20406;-63
2022/08/31 08:27:00;;;;;;;0.00;0.00;;;22.80;56.00;;;;;;4183079;28;20089;-63
2022/08/31 08:30:05;;;;;;;0.00;0.00;;;22.90;55.90;;;;;;4199960;28;20056;-63
2022/08/31 08:32:46;;;;;;;0.00;0.00;;;22.90;56.00;;;;;;4189245;28;20056;-63
2022/08/31 08:35:29;;;;;;;;;;;22.90;55.90;;;;;;4176730;28;20186;-64
2022/08/31 08:38:12;;;;;;;0.00;0.00;;;22.90;55.90;;;;;;4192843;28;19927;-63
2022/08/31 08:40:54;;;;;;;0.00;0.00;;;23.00;55.80;;;;;;4191959;28;20052;-63
2022/08/31 08:43:41;;;;;;;0.00;0.00;;;23.00;55.90;;;;;;4189191;28;20502;-63
2022/08/31 08:46:30;;;;;;;0.00;0.00;;;23.00;55.80;;;;;;4189173;28;20051;-63
2022/08/31 08:49:21;;;;;;;0.00;0.00;;;23.00;55.80;;;;;;4189646;28;20406;-63
2022/08/31 08:52:11;;;;;;;0.00;0.00;;;23.00;55.70;;;;;;4175740;28;20068;-63
2022/08/31 08:54:59;;;;;;;0.00;0.00;;;23.00;55.60;;;;;;4198301;28;20102;-63
2022/08/31 08:57:43;;;;;;;0.00;0.00;;;23.00;55.30;;;;;;4201312;28;20051;-63
2022/08/31 09:00:27;;;;;;;0.00;0.00;;;23.10;55.50;;;;;;4189553;28;20051;-63
2022/08/31 09:03:19;;;;;;;0.00;0.00;;;23.10;55.70;;;;;;4177479;28;20047;-63
2022/08/31 09:06:29;;;;;;;0.00;0.00;;;23.10;55.40;;;;;;4179012;28;20540;-63
2022/08/31 09:09:24;;;;;;;0.00;0.00;;;23.20;55.00;;;;;;4201583;28;20071;-63
2022/08/31 09:12:29;;;;;;;0.00;0.00;;;23.20;55.20;;;;;;4200110;28;20071;-63
2022/08/31 09:15:27;;;;;;;0.10;0.10;;;23.20;55.20;;;;;;4173948;28;20048;-63
2022/08/31 09:18:20;;;;;;;0.00;0.00;;;23.20;55.40;;;;;;4188061;28;20090;-63
2022/08/31 09:21:07;;;;;;;0.00;0.00;;;23.20;55.30;;;;;;4193976;28;20596;-63
2022/08/31 09:23:53;;;;;;;0.00;0.00;;;23.30;55.40;;;;;;4182757;28;20178;-63
2022/08/31 09:26:53;;;;;;;0.00;0.00;;;23.30;55.40;;;;;;4174003;28;20047;-64
2022/08/31 09:29:53;;;;;;;0.00;0.00;;;23.30;54.60;;;;;;4161744;28;20809;-63
2022/08/31 09:32:36;;;;;;;0.00;0.00;;;23.30;54.60;;;;;;4177869;28;20080;-63
2022/08/31 09:35:27;;;;;;;0.00;0.00;;;23.30;54.50;;;;;;4189543;28;20070;-64
2022/08/31 09:38:11;;;;;;;;;;;23.30;54.10;;;;;;4180231;28;20052;-64
2022/08/31 09:40:52;;;;;;;0.10;0.10;;;23.30;53.80;;;;;;4176884;28;19931;-63
2022/08/31 09:43:37;;;;;;;0.00;0.00;;;23.40;53.70;;;;;;4205154;28;20055;-63
2022/08/31 09:46:26;;;;;;;0.00;0.00;;;23.40;53.60;;;;;;4220689;28;20514;-63
2022/08/31 09:49:20;;;;;;;0.00;0.00;;;23.40;53.80;;;;;;4209766;28;20165;-64
2022/08/31 09:52:19;;;;;;;0.00;0.00;;;23.40;54.00;;;;;;4209614;28;20141;-63
2022/08/31 09:55:20;;;;;;;0.00;0.00;;;23.50;53.60;;;;;;4182274;28;20074;-63
2022/08/31 09:58:03;;;;;;;0.00;0.00;;;23.50;53.80;;;;;;4196261;28;20065;-63
2022/08/31 10:00:49;;;;;;;0.00;0.00;;;23.50;53.60;;;;;;4192333;28;20507;-63
2022/08/31 10:03:33;;;;;;;0.00;0.00;;;23.50;53.80;;;;;;4175078;28;20114;-63
2022/08/31 10:06:44;;;;;;;0.00;0.00;;;23.60;53.90;;;;;;4186995;28;20130;-63
2022/08/31 10:09:36;;;;;;;0.00;0.00;;;23.60;53.90;;;;;;4175769;28;20039;-63
2022/08/31 10:12:21;;;;;;;0.00;0.00;;;23.60;53.60;;;;;;4178240;28;20522;-63
2022/08/31 10:15:09;;;;;;;0.00;0.00;;;23.60;53.30;;;;;;4178054;28;20048;-63
2022/08/31 10:18:01;;;;;;;0.00;0.00;;;23.70;53.60;;;;;;4201174;28;20063;-64
2022/08/31 10:20:50;;;;;;;0.00;0.00;;;23.70;53.30;;;;;;4209914;28;20124;-63
2022/08/31 10:23:40;;;;;;;0.00;0.00;;;23.70;53.40;;;;;;4205114;28;20181;-63
2022/08/31 10:26:30;;;;;;;0.00;0.00;;;23.70;53.20;;;;;;4192409;28;20514;-63
2022/08/31 10:29:14;;;;;;;0.00;0.00;;;23.70;53.30;;;;;;4191326;28;20529;-63
2022/08/31 10:32:12;;;;;;;0.00;0.00;;;23.80;53.00;;;;;;4193335;28;20109;-65
2022/08/31 10:35:05;;;;;;;0.00;0.00;;;23.80;53.10;;;;;;4192485;28;20051;-63
2022/08/31 10:37:58;;;;;;;0.10;0.10;;;23.80;53.30;;;;;;4193455;28;20052;-62
2022/08/31 10:40:44;;;;;;;0.00;0.00;;;23.80;53.20;;;;;;4192553;28;20075;-63
2022/08/31 10:43:31;;;;;;;0.00;0.00;;;23.80;52.90;;;;;;4191801;28;20118;-63
2022/08/31 10:46:14;;;;;;;0.00;0.00;;;23.90;52.50;;;;;;4193260;28;20179;-63
2022/08/31 10:48:57;;;;;;;0.00;0.00;;;23.90;52.40;;;;;;4192959;28;20581;-63
2022/08/31 10:51:46;;;;;;;0.00;0.00;;;23.90;52.70;;;;;;4190587;28;20055;-63
2022/08/31 10:54:34;;;;;;;1.67;0.88;;;23.90;52.80;;;;;;4202385;28;20105;-63
2022/08/31 10:57:30;;;;;;;0.00;0.00;;;23.90;52.80;;;;;;4209780;28;20051;-63
2022/08/31 11:03:23;;;;;;;0.00;0.00;;;24.00;52.40;;;;;;4191635;28;20051;-64
2022/08/31 11:06:11;;;;;;;0.00;0.00;;;24.00;52.10;;;;;;4193960;28;20418;-62
2022/08/31 11:09:00;;;;;;;0.00;0.00;;;24.00;51.90;;;;;;4209476;28;20074;-63
2022/08/31 11:11:46;;;;;;;0.00;0.00;;;24.00;52.10;;;;;;4206818;28;20055;-63
2022/08/31 11:14:52;;;;;;;0.00;0.00;;;24.00;51.50;;;;;;4209660;28;20059;-63
2022/08/31 11:17:50;;;;;;;0.00;0.00;;;24.10;51.10;;;;;;4208100;28;20051;-63
2022/08/31 11:20:50;;;;;;;0.00;0.00;;;24.10;50.80;;;;;;4208423;28;20213;-63
2022/08/31 11:23:59;;;;;;;0.00;0.00;;;24.10;50.80;;;;;;4203560;28;20055;-63
2022/08/31 11:26:50;;;;;;;0.00;0.00;;;24.10;51.00;;;;;;4184899;28;20372;-63
2022/08/31 11:29:40;;;;;;;0.00;0.00;;;24.10;50.80;;;;;;4176335;28;20814;-63
2022/08/31 11:32:26;;;;;;;0.00;0.00;;;24.10;50.10;;;;;;4189167;28;20508;-63
2022/08/31 11:35:09;;;;;;;0.00;0.00;;;24.10;49.30;;;;;;4192317;28;20179;-63
2022/08/31 11:37:54;;;;;;;0.00;0.00;;;24.20;49.50;;;;;;4202556;28;20102;-63
2022/08/31 11:41:12;;;;;;;0.35;0.35;;;24.20;49.90;;;;;;4186540;28;20196;-63
2022/08/31 11:43:55;;;;;;;0.00;0.00;;;24.20;49.50;;;;;;4186459;28;20600;-64
2022/08/31 11:46:58;;;;;;;0.22;0.22;;;24.20;49.60;;;;;;4191927;28;20064;-63
2022/08/31 11:49:46;;;;;;;0.00;0.00;;;24.20;49.40;;;;;;4193702;28;20063;-63
2022/08/31 11:52:46;;;;;;;0.00;0.00;;;24.20;48.70;;;;;;4187332;28;20066;-63
2022/08/31 11:55:30;;;;;;;0.00;0.00;;;24.30;48.60;;;;;;4176013;28;20103;-63
2022/08/31 11:58:38;;;;;;;0.00;0.00;;;24.30;48.50;;;;;;4174503;28;20047;-63
2022/08/31 12:01:35;;;;;;;0.00;0.00;;;24.30;49.00;;;;;;4174458;28;20056;-63
2022/08/31 12:04:56;;;;;;;0.00;0.00;;;24.30;48.90;;;;;;4189543;28;20098;-63
2022/08/31 12:07:42;;;;;;;0.00;0.00;;;24.30;48.60;;;;;;4204566;28;20139;-64
2022/08/31 12:10:34;;;;;;;0.10;0.10;;;24.30;48.50;;;;;;4157773;28;20051;-63
2022/08/31 12:13:33;;;;;;;;;;;24.30;48.70;;;;;;4186158;28;20051;-63
2022/08/31 12:16:28;;;;;;;0.00;0.00;;;24.40;47.70;;;;;;4193868;28;19928;-63
2022/08/31 12:26:41;;;;;;;0.00;0.00;;;24.40;47.10;;;;;;4191153;28;20059;-63
2022/08/31 12:29:27;;;;;;;0.00;0.00;;;24.40;47.30;;;;;;4205225;28;20062;-63
2022/08/31 12:32:20;;;;;;;0.00;0.00;;;24.30;48.40;;;;;;4208185;28;20494;-63
2022/08/31 12:35:14;;;;;;;0.00;0.00;;;24.40;49.20;;;;;;4200666;28;20399;-64
2022/08/31 12:37:59;;;;;;;0.00;0.00;;;24.40;49.40;;;;;;4191460;28;20061;-63
2022/08/31 12:40:44;;;;;;;0.00;0.00;;;24.40;48.70;;;;;;4197883;28;20043;-63
2022/08/31 12:43:31;;;;;;;0.00;0.00;;;24.50;48.10;;;;;;4212880;28;20441;-63
2022/08/31 12:46:31;;;;;;;0.00;0.00;;;24.50;48.00;;;;;;4190198;28;20059;-63
2022/08/31 12:49:29;;;;;;;0.00;0.00;;;24.50;48.50;;;;;;4191877;28;20059;-62
2022/08/31 12:52:23;;;;;;;0.00;0.00;;;24.50;48.20;;;;;;4201156;28;20174;-64
2022/08/31 12:55:22;;;;;;;0.00;0.00;;;24.50;47.60;;;;;;4182920;28;20400;-64
2022/08/31 12:58:29;;;;;;;0.00;0.00;;;24.50;48.20;;;;;;4205784;28;20055;-63
2022/08/31 13:01:14;;;;;;;0.43;0.43;;;24.60;47.70;;;;;;4174197;28;20475;-63
2022/08/31 13:03:59;;;;;;;0.00;0.00;;;24.60;47.00;;;;;;4190803;28;20060;-64
2022/08/31 13:06:43;;;;;;;0.40;0.40;;;24.50;46.60;;;;;;4191318;28;20417;-63
2022/08/31 13:09:33;;;;;;;0.25;0.25;;;24.50;47.30;;;;;;4191335;28;20052;-64
2022/08/31 13:12:23;;;;;;;0.00;0.00;;;24.60;47.60;;;;;;4190810;28;20101;-64
2022/08/31 13:15:09;;;;;;;0.00;0.00;;;24.60;47.90;;;;;;4180448;28;20114;-64
2022/08/31 13:17:57;;;;;;;0.00;0.00;;;24.50;47.00;;;;;;4185276;28;20055;-64
2022/08/31 13:20:41;;;;;;;0.00;0.00;;;24.60;47.40;;;;;;4197191;28;20059;-65
2022/08/31 13:23:29;;;;;;;0.00;0.00;;;24.60;47.10;;;;;;4191805;28;20050;-64
2022/08/31 13:26:19;;;;;;;0.00;0.00;;;24.60;47.60;;;;;;4199489;28;20048;-63
2022/08/31 13:29:06;;;;;;;0.08;0.08;;;24.60;47.80;;;;;;4191483;28;20056;-64
2022/08/31 13:31:50;;;;;;;0.00;0.00;;;24.60;47.60;;;;;;4203668;28;20055;-64
2022/08/31 13:34:40;;;;;;;0.00;0.00;;;24.60;47.10;;;;;;4206239;28;20149;-63
2022/08/31 13:37:27;;;;;;;0.00;0.00;;;24.70;47.30;;;;;;4199949;28;20654;-64
2022/08/31 13:40:13;;;;;;;0.00;0.00;;;24.70;48.20;;;;;;4184579;28;20051;-64
2022/08/31 13:42:57;;;;;;;0.00;0.00;;;24.70;48.20;;;;;;4190312;28;20051;-64
2022/08/31 13:45:51;;;;;;;0.00;0.00;;;24.80;46.90;;;;;;4176954;28;20186;-64
2022/08/31 13:48:36;;;;;;;0.13;0.13;;;24.80;47.40;;;;;;4190710;28;20506;-66
2022/08/31 13:51:32;;;;;;;0.00;0.00;;;24.80;47.00;;;;;;4173928;28;20130;-63
2022/08/31 13:54:24;;;;;;;0.00;0.00;;;24.80;47.30;;;;;;4188007;28;20052;-64
2022/08/31 13:57:12;;;;;;;0.00;0.00;;;24.80;46.60;;;;;;4176362;28;20106;-64
2022/08/31 13:59:55;;;;;;;0.00;0.00;;;24.80;46.70;;;;;;4188238;28;20051;-63
2022/08/31 14:02:38;;;;;;;0.00;0.00;;;24.90;46.80;;;;;;4204695;28;20137;-64
2022/08/31 14:05:29;;;;;;;0.65;0.35;;;24.90;46.60;;;;;;4195287;28;20114;-63
2022/08/31 14:08:23;;;;;;;0.00;0.00;;;24.90;47.00;;;;;;4195215;28;20046;-63
2022/08/31 14:11:13;;;;;;;0.00;0.00;;;24.90;47.60;;;;;;4192771;28;20047;-64
2022/08/31 14:13:55;;;;;;;0.00;0.00;;;24.90;46.70;;;;;;4188562;28;20056;-63
2022/08/31 14:16:40;;;;;;;0.00;0.00;;;24.90;46.50;;;;;;4182318;28;20055;-64
2022/08/31 14:19:31;;;;;;;0.00;0.00;;;24.90;46.90;;;;;;4193290;28;20047;-64
2022/08/31 14:22:16;;;;;;;0.45;0.43;;;25.00;47.00;;;;;;4191753;28;20110;-64
2022/08/31 14:24:59;;;;;;;0.00;0.00;;;24.90;47.00;;;;;;4194560;28;20067;-64
2022/08/31 14:27:41;;;;;;;0.28;0.28;;;25.00;47.20;;;;;;4208483;28;20166;-64
2022/08/31 14:30:24;;;;;;;0.00;0.00;;;25.00;47.30;;;;;;4207545;28;20616;-64
2022/08/31 14:33:15;;;;;;;0.00;0.00;;;25.00;47.40;;;;;;4206130;28;20054;-64
2022/08/31 14:35:57;;;;;;;0.10;0.10;;;25.00;46.70;;;;;;4206044;28;20598;-62
2022/08/31 14:38:38;;;;;;;0.00;0.00;;;25.00;47.00;;;;;;4210737;28;20039;-61
2022/08/31 14:41:27;;;;;;;0.00;0.00;;;25.00;47.30;;;;;;4189397;28;20506;-61
2022/08/31 14:44:12;;;;;;;0.00;0.00;;;25.00;47.90;;;;;;4189497;28;20125;-60
2022/08/31 14:46:56;;;;;;;0.10;0.10;;;25.00;47.10;;;;;;4196496;28;20059;-63
2022/08/31 14:49:44;;;;;;;3.50;1.25;;;25.00;46.20;;;;;;4203327;28;20108;-61
2022/08/31 14:52:29;;;;;;;0.00;0.00;;;25.00;46.10;;;;;;4204286;28;20054;-61
2022/08/31 14:55:12;;;;;;;0.10;0.10;;;25.00;46.00;;;;;;4198707;28;20413;-62
2022/08/31 14:58:03;;;;;;;0.00;0.00;;;25.00;45.50;;;;;;4173665;28;20044;-62